Time;durP1;ratioP1;P1;durP2;ratioP2;P2;SDS_P1;SDS_P2;PMS_P1;PMS_P2;Temp;Humidity;BMP_temperature;BMP_pressure;BME280_temperature;BME280_humidity;BME280_pressure;Samples;Min_cycle;Max_cycle;Signal;HPM_P1;HPM_P2
2020/12/10 00:02:21;;;;;;;22.77;12.50;;;3.80;99.90;;;;;;5073418;28;20540;-70
2020/12/10 00:04:47;;;;;;;17.77;13.03;;;3.80;72.30;;;;;;5084124;28;20466;-70
2020/12/10 00:07:14;;;;;;;20.83;12.20;;;3.70;99.90;;;;;;5077526;28;20468;-70
2020/12/10 00:09:40;;;;;;;21.00;12.33;;;3.80;99.90;;;;;;5079349;28;20523;-70
2020/12/10 00:12:06;;;;;;;21.70;12.57;;;3.90;99.90;;;;;;5085930;28;20471;-70
2020/12/10 00:14:33;;;;;;;21.43;12.30;;;4.00;99.90;;;;;;5075332;28;20536;-70
2020/12/10 00:17:00;;;;;;;26.10;12.70;;;3.90;75.50;;;;;;5078214;28;20946;-70
2020/12/10 00:19:26;;;;;;;23.10;13.77;;;4.10;52.00;;;;;;5085223;28;20476;-70
2020/12/10 00:21:56;;;;;;;20.30;11.70;;;4.10;1.00;;;;;;5070932;28;20579;-70
2020/12/10 00:24:22;;;;;;;24.20;12.33;;;4.00;26.10;;;;;;5073204;28;20474;-70
2020/12/10 00:26:49;;;;;;;18.10;12.03;;;3.90;1.00;;;;;;5081890;28;20576;-71
2020/12/10 00:29:15;;;;;;;20.70;12.43;;;3.80;44.20;;;;;;5074376;28;20563;-70
2020/12/10 00:31:41;;;;;;;23.10;11.83;;;4.00;99.90;;;;;;5073604;28;20560;-70
2020/12/10 00:34:09;;;;;;;20.50;12.30;;;4.10;1.00;;;;;;5071715;28;20456;-70
2020/12/10 00:36:35;;;;;;;18.37;11.57;;;4.10;1.00;;;;;;5083600;28;20456;-70
2020/12/10 00:39:02;;;;;;;21.53;12.23;;;3.80;1.00;;;;;;5071354;28;20448;-70
2020/12/10 00:41:28;;;;;;;17.30;11.00;;;3.90;1.00;;;;;;5071745;28;20505;-70
2020/12/10 00:43:54;;;;;;;16.20;11.43;;;4.00;1.00;;;;;;5072858;28;20541;-70
2020/12/10 00:46:21;;;;;;;16.90;10.43;;;4.00;1.00;;;;;;5085667;28;20443;-70
2020/12/10 00:48:47;;;;;;;19.83;12.43;;;4.00;1.00;;;;;;5076746;28;20464;-70
2020/12/10 00:51:14;;;;;;;21.30;11.43;;;4.10;1.00;;;;;;5076056;28;20474;-70
2020/12/10 00:53:41;;;;;;;17.57;11.57;;;4.10;1.00;;;;;;5081428;28;20454;-70
2020/12/10 00:56:08;;;;;;;17.03;10.67;;;4.10;1.00;;;;;;5074861;28;20932;-70
2020/12/10 00:58:34;;;;;;;20.20;11.03;;;4.00;1.00;;;;;;5080830;28;20523;-70
2020/12/10 01:01:01;;;;;;;17.90;11.40;;;4.10;1.00;;;;;;5070345;28;20441;-70
2020/12/10 01:03:27;;;;;;;18.43;10.97;;;3.90;1.00;;;;;;5081060;28;20580;-69
2020/12/10 01:05:53;;;;;;;18.20;11.93;;;4.00;1.00;;;;;;5071238;28;20564;-70
2020/12/10 01:08:20;;;;;;;17.23;10.73;;;4.00;1.00;;;;;;5075193;28;20537;-70
2020/12/10 01:10:47;;;;;;;18.30;12.20;;;4.00;1.00;;;;;;5083102;28;20441;-70
2020/12/10 01:13:13;;;;;;;20.97;12.30;;;4.10;1.00;;;;;;5077437;28;20458;-70
2020/12/10 01:15:40;;;;;;;17.53;11.37;;;4.10;1.00;;;;;;5074734;28;20916;-70
2020/12/10 01:18:06;;;;;;;19.80;11.07;;;4.10;1.00;;;;;;5078847;28;20515;-70
2020/12/10 01:20:35;;;;;;;17.90;12.27;;;4.10;1.00;;;;;;5071655;28;20535;-70
2020/12/10 01:23:01;;;;;;;20.00;11.60;;;4.10;1.00;;;;;;5073751;28;20484;-70
2020/12/10 01:25:28;;;;;;;19.40;13.07;;;4.10;1.00;;;;;;5079700;28;20469;-70
2020/12/10 01:27:55;;;;;;;15.20;10.27;;;4.10;1.00;;;;;;5082840;28;20453;-70
2020/12/10 01:30:21;;;;;;;17.00;11.57;;;4.10;1.00;;;;;;5070484;28;20481;-70
2020/12/10 01:32:47;;;;;;;22.17;12.23;;;4.20;1.00;;;;;;5069579;28;20445;-70
2020/12/10 01:35:14;;;;;;;17.37;10.10;;;4.10;1.00;;;;;;5081509;28;20444;-70
2020/12/10 01:37:40;;;;;;;20.43;10.90;;;4.10;1.00;;;;;;5086276;28;20534;-70
2020/12/10 01:40:07;;;;;;;18.93;11.13;;;4.00;1.00;;;;;;5072356;28;20993;-70
2020/12/10 01:42:36;;;;;;;14.90;10.70;;;4.10;99.90;;;;;;5074420;28;20480;-70
2020/12/10 01:45:04;;;;;;;16.83;10.40;;;4.00;99.90;;;;;;5083477;28;20530;-70
2020/12/10 01:47:32;;;;;;;18.13;10.70;;;3.90;99.90;;;;;;5081583;28;20469;-70
2020/12/10 01:49:58;;;;;;;18.00;11.33;;;4.00;99.90;;;;;;5076914;28;20460;-70
2020/12/10 01:52:25;;;;;;;16.87;10.43;;;4.00;99.90;;;;;;5074613;28;20460;-70
2020/12/10 01:54:51;;;;;;;20.00;11.30;;;3.90;99.90;;;;;;5087400;28;20451;-71
2020/12/10 01:57:18;;;;;;;15.57;9.77;;;3.90;99.90;;;;;;5078979;28;20459;-70
2020/12/10 01:59:48;;;;;;;18.47;10.70;;;3.90;99.90;;;;;;5077920;28;20531;-70
2020/12/10 02:02:15;;;;;;;17.30;9.97;;;3.90;99.90;;;;;;5077913;28;20507;-70
2020/12/10 02:04:42;;;;;;;17.17;11.20;;;4.00;99.90;;;;;;5071554;28;20944;-70
2020/12/10 02:07:08;;;;;;;16.80;9.70;;;3.90;99.90;;;;;;5076541;28;20456;-70
2020/12/10 02:09:35;;;;;;;13.47;9.43;;;3.90;1.00;;;;;;5083689;28;20481;-70
2020/12/10 02:12:01;;;;;;;18.00;12.10;;;3.80;1.00;;;;;;5085674;28;21830;-70
2020/12/10 02:14:31;;;;;;;17.73;11.37;;;3.90;1.00;;;;;;5070496;28;20567;-70
2020/12/10 02:17:00;;;;;;;16.90;11.07;;;4.00;99.90;;;;;;5070324;28;20508;-70
2020/12/10 02:19:26;;;;;;;14.10;8.80;;;4.00;99.90;;;;;;5072646;28;20433;-69
2020/12/10 02:21:53;;;;;;;18.27;11.30;;;3.90;99.90;;;;;;5069630;28;20481;-70
2020/12/10 02:24:20;;;;;;;15.63;9.57;;;3.90;99.90;;;;;;5076086;28;20531;-70
2020/12/10 02:26:47;;;;;;;17.40;10.50;;;3.90;99.90;;;;;;5079463;28;20946;-70
2020/12/10 02:29:16;;;;;;;15.50;10.30;;;4.00;99.90;;;;;;5079853;28;20541;-70
2020/12/10 02:31:43;;;;;;;16.77;8.60;;;3.90;99.90;;;;;;5069312;28;20495;-70
2020/12/10 02:34:09;;;;;;;16.93;10.93;;;3.80;99.90;;;;;;5074942;28;20996;-70
2020/12/10 02:36:37;;;;;;;17.90;10.90;;;3.90;99.90;;;;;;5074167;28;20464;-70
2020/12/10 02:39:05;;;;;;;16.80;10.20;;;3.90;99.90;;;;;;5079308;28;20546;-70
2020/12/10 02:41:32;;;;;;;16.43;10.57;;;3.80;99.90;;;;;;5079354;28;20524;-70
2020/12/10 02:43:59;;;;;;;16.60;10.03;;;3.90;1.00;;;;;;5085028;28;20534;-70
2020/12/10 02:46:25;;;;;;;20.90;12.53;;;3.90;1.00;;;;;;5087721;28;20537;-70
2020/12/10 02:48:52;;;;;;;19.80;11.40;;;3.80;1.00;;;;;;5078281;28;20438;-70
2020/12/10 02:51:19;;;;;;;14.93;10.43;;;3.80;1.00;;;;;;5082009;28;20895;-70
2020/12/10 02:53:47;;;;;;;20.07;11.37;;;3.80;1.00;;;;;;5088067;28;20684;-70
2020/12/10 02:56:15;;;;;;;19.23;10.63;;;3.90;1.00;;;;;;5080023;28;20463;-70
2020/12/10 02:58:43;;;;;;;17.13;10.47;;;3.90;1.00;;;;;;5081310;28;20436;-70
2020/12/10 03:01:10;;;;;;;16.97;10.77;;;3.90;1.00;;;;;;5074541;28;20452;-70
2020/12/10 03:03:38;;;;;;;19.23;11.73;;;3.70;1.00;;;;;;5091441;28;20575;-70
2020/12/10 03:06:05;;;;;;;17.67;11.23;;;3.70;1.00;;;;;;5080160;28;20996;-70
2020/12/10 03:08:32;;;;;;;20.47;11.83;;;3.90;1.00;;;;;;5082488;28;20443;-70
2020/12/10 03:10:58;;;;;;;16.07;10.80;;;4.00;1.00;;;;;;5089739;28;20534;-70
2020/12/10 03:13:25;;;;;;;16.23;11.53;;;4.10;1.00;;;;;;5083445;28;20835;-70
2020/12/10 03:15:54;;;;;;;18.17;12.37;;;3.90;1.00;;;;;;5074713;28;20461;-70
2020/12/10 03:18:20;;;;;;;16.37;10.23;;;3.90;1.00;;;;;;5087205;28;20970;-70
2020/12/10 03:20:47;;;;;;;19.77;11.70;;;3.90;1.00;;;;;;5075048;28;20488;-70
2020/12/10 03:23:13;;;;;;;20.57;11.00;;;3.70;1.00;;;;;;5072020;28;20482;-70
2020/12/10 03:25:40;;;;;;;17.83;10.87;;;3.80;1.00;;;;;;5080990;28;20524;-70
2020/12/10 03:28:06;;;;;;;19.87;11.50;;;3.80;1.00;;;;;;5070958;28;20455;-70
2020/12/10 03:30:32;;;;;;;21.13;12.90;;;3.70;1.00;;;;;;5072096;28;20454;-70
2020/12/10 03:33:00;;;;;;;21.07;11.87;;;3.80;1.00;;;;;;5077750;28;20879;-70
2020/12/10 03:35:27;;;;;;;17.97;11.30;;;3.80;1.00;;;;;;5077280;28;21027;-69
2020/12/10 03:37:53;;;;;;;18.57;11.87;;;3.80;1.00;;;;;;5091922;28;20567;-70
2020/12/10 03:40:19;;;;;;;20.83;10.77;;;3.80;1.00;;;;;;5080042;28;20534;-70
2020/12/10 03:42:46;;;;;;;19.13;10.40;;;3.90;1.00;;;;;;5080402;28;21314;-70
2020/12/10 03:45:12;;;;;;;19.87;12.50;;;3.80;1.00;;;;;;5074086;28;20452;-70
2020/12/10 03:47:39;;;;;;;21.80;11.60;;;3.90;1.00;;;;;;5072020;28;20537;-70
2020/12/10 03:50:06;;;;;;;23.33;11.80;;;3.80;1.00;;;;;;5080986;28;20441;-70
2020/12/10 03:52:33;;;;;;;22.43;12.70;;;3.50;1.00;;;;;;5085276;28;20545;-70
2020/12/10 03:55:01;;;;;;;20.00;13.20;;;3.70;1.00;;;;;;5074349;28;20452;-71
2020/12/10 03:57:27;;;;;;;23.30;13.33;;;3.70;1.00;;;;;;5074181;28;20528;-70
2020/12/10 03:59:54;;;;;;;22.37;13.23;;;3.70;1.00;;;;;;5078488;28;20540;-70
2020/12/10 04:02:20;;;;;;;20.40;13.20;;;3.60;1.00;;;;;;5083045;28;20476;-70
2020/12/10 04:04:49;;;;;;;24.43;12.40;;;3.60;1.00;;;;;;5083761;28;20871;-70
2020/12/10 04:07:16;;;;;;;23.20;12.27;;;3.50;1.00;;;;;;5070624;28;20449;-71
2020/12/10 04:09:42;;;;;;;28.63;13.20;;;3.70;1.00;;;;;;5071680;28;20894;-70
2020/12/10 04:12:09;;;;;;;21.87;13.10;;;3.80;1.00;;;;;;5074073;28;20530;-70
2020/12/10 04:14:35;;;;;;;19.77;12.33;;;3.80;1.00;;;;;;5075744;28;21018;-70
2020/12/10 04:17:02;;;;;;;22.57;12.47;;;3.80;1.00;;;;;;5079900;28;20456;-70
2020/12/10 04:19:28;;;;;;;23.00;13.43;;;3.70;1.00;;;;;;5084793;28;20537;-70
2020/12/10 04:21:54;;;;;;;22.13;13.43;;;3.70;1.00;;;;;;5072069;28;20469;-70
2020/12/10 04:24:37;;;;;;;24.23;13.87;;;3.60;1.00;;;;;;5069691;28;20448;-70
2020/12/10 04:27:03;;;;;;;23.40;12.47;;;3.80;1.00;;;;;;5079158;28;20850;-70
2020/12/10 04:29:30;;;;;;;21.33;11.77;;;3.70;1.00;;;;;;5072783;28;20524;-69
2020/12/10 04:31:56;;;;;;;22.17;12.27;;;3.70;1.00;;;;;;5077361;28;20463;-70
2020/12/10 04:34:22;;;;;;;21.67;13.77;;;3.60;1.00;;;;;;5081175;28;20537;-70
2020/12/10 04:36:51;;;;;;;28.40;14.50;;;3.60;56.60;;;;;;5078359;28;20481;-70
2020/12/10 04:42:06;;;;;;;25.67;13.70;;;3.50;99.90;;;;;;5081325;28;20434;-70
2020/12/10 04:44:34;;;;;;;20.90;12.20;;;3.50;99.90;;;;;;5072835;28;20445;-70
2020/12/10 04:47:01;;;;;;;24.67;14.20;;;3.50;99.90;;;;;;5070840;28;20507;-70
2020/12/10 04:49:30;;;;;;;21.13;12.43;;;3.50;99.90;;;;;;5075128;28;20525;-69
2020/12/10 04:51:58;;;;;;;23.00;13.33;;;3.50;99.90;;;;;;5069961;28;20542;-70
2020/12/10 04:54:24;;;;;;;29.47;15.20;;;3.50;99.90;;;;;;5089272;28;20476;-70
2020/12/10 04:56:51;;;;;;;22.40;13.30;;;3.40;99.90;;;;;;5074446;28;20455;-70
2020/12/10 04:59:19;;;;;;;22.87;14.20;;;3.40;99.90;;;;;;5072677;28;20454;-70
2020/12/10 05:01:46;;;;;;;28.50;15.13;;;3.40;99.90;;;;;;5073822;28;20529;-70
2020/12/10 05:04:12;;;;;;;24.33;13.97;;;3.30;99.90;;;;;;5079689;28;20537;-70
2020/12/10 05:06:49;;;;;;;24.90;14.33;;;3.50;99.90;;;;;;5075198;28;20535;-70
2020/12/10 05:09:17;;;;;;;22.20;12.60;;;3.40;99.90;;;;;;5082099;28;20463;-70
2020/12/10 05:11:43;;;;;;;20.80;12.50;;;3.60;68.70;;;;;;5083227;28;20516;-70
2020/12/10 05:14:09;;;;;;;19.50;12.43;;;3.50;95.10;;;;;;5078413;28;20455;-70
2020/12/10 05:16:37;;;;;;;19.73;11.63;;;3.50;24.80;;;;;;5079651;28;20536;-70
2020/12/10 05:19:18;;;;;;;24.20;14.13;;;3.50;98.10;;;;;;5074603;28;21365;-71
2020/12/10 05:22:01;;;;;;;24.70;14.70;;;3.40;56.90;;;;;;5066521;28;20452;-70
2020/12/10 05:24:29;;;;;;;24.03;13.70;;;3.30;99.90;;;;;;5074670;28;20433;-69
2020/12/10 05:27:18;;;;;;;26.10;16.03;;;3.50;99.90;;;;;;5080215;28;20491;-70
2020/12/10 05:29:46;;;;;;;31.17;14.20;;;3.80;99.90;;;;;;5079330;28;20497;-71
2020/12/10 05:32:35;;;;;;;23.57;13.27;;;3.90;99.90;;;;;;5067194;28;20526;-69
2020/12/10 05:35:17;;;;;;;24.63;13.60;;;3.80;99.90;;;;;;5071294;28;20433;-70
2020/12/10 05:37:44;;;;;;;23.00;12.50;;;3.60;94.00;;;;;;5080910;28;20517;-72
2020/12/10 05:40:10;;;;;;;21.13;12.20;;;3.60;1.00;;;;;;5066447;28;20968;-72
2020/12/10 05:42:39;;;;;;;26.40;15.07;;;3.60;1.00;;;;;;5076914;28;20500;-74
2020/12/10 05:45:14;;;;;;;26.17;14.30;;;3.60;1.00;;;;;;5084446;28;21008;-69
2020/12/10 05:48:07;;;;;;;22.90;12.53;;;3.60;61.10;;;;;;5070405;28;20465;-69
2020/12/10 05:50:34;;;;;;;23.80;13.20;;;3.60;99.90;;;;;;5076056;28;20832;-69
2020/12/10 05:53:07;;;;;;;25.17;15.57;;;3.70;22.70;;;;;;5078087;28;20481;-69
2020/12/10 05:55:42;;;;;;;29.27;15.53;;;3.50;1.00;;;;;;5069915;28;20446;-72
2020/12/10 05:58:08;;;;;;;28.87;14.90;;;3.60;96.90;;;;;;5077013;28;20445;-72
2020/12/10 06:00:36;;;;;;;29.10;17.17;;;3.60;71.90;;;;;;5064364;28;20907;-68
2020/12/10 06:03:04;;;;;;;29.27;14.30;;;3.60;17.20;;;;;;5085705;28;20583;-69
2020/12/10 06:05:31;;;;;;;27.20;15.53;;;3.60;16.20;;;;;;5079954;28;20518;-72
2020/12/10 06:07:59;;;;;;;26.90;15.47;;;3.60;1.00;;;;;;5074341;28;20860;-72
2020/12/10 06:10:28;;;;;;;22.07;14.10;;;3.50;1.00;;;;;;5082689;28;20844;-70
2020/12/10 06:12:54;;;;;;;29.87;14.30;;;3.60;1.00;;;;;;5072317;28;20540;-69
2020/12/10 06:15:28;;;;;;;25.23;14.30;;;3.50;1.00;;;;;;5079166;28;20446;-68
2020/12/10 06:18:03;;;;;;;24.13;13.60;;;3.50;1.00;;;;;;5072868;28;20428;-69
2020/12/10 06:20:38;;;;;;;25.90;13.90;;;3.50;1.00;;;;;;5079286;28;20872;-68
2020/12/10 06:23:31;;;;;;;24.67;14.93;;;3.60;1.00;;;;;;5078584;28;20483;-68
2020/12/10 06:26:00;;;;;;;22.47;12.67;;;3.50;1.00;;;;;;5088169;28;20490;-68
2020/12/10 06:28:31;;;;;;;25.00;12.80;;;3.70;1.00;;;;;;5091559;28;20445;-68
2020/12/10 06:31:07;;;;;;;27.03;13.63;;;3.80;1.00;;;;;;5065143;28;21002;-69
2020/12/10 06:33:37;;;;;;;19.13;13.10;;;3.80;1.00;;;;;;5082760;28;20449;-68
2020/12/10 06:36:20;;;;;;;22.10;12.87;;;3.80;1.00;;;;;;5090472;28;20440;-68
2020/12/10 06:38:47;;;;;;;22.90;13.77;;;3.70;1.00;;;;;;5090501;28;20476;-69
2020/12/10 06:41:17;;;;;;;23.17;14.47;;;3.70;1.00;;;;;;5079338;28;20469;-69
2020/12/10 06:43:44;;;;;;;23.00;13.63;;;3.80;1.00;;;;;;5088249;28;20510;-69
2020/12/10 06:46:11;;;;;;;20.70;12.50;;;3.80;1.00;;;;;;5092981;28;20803;-69
2020/12/10 06:48:40;;;;;;;22.53;13.17;;;3.80;1.00;;;;;;5080001;28;20561;-68
2020/12/10 06:51:14;;;;;;;22.57;12.47;;;4.60;1.00;;;;;;5081461;28;20526;-68
2020/12/10 06:53:41;;;;;;;19.70;12.27;;;4.60;1.00;;;;;;5080557;28;20990;-68
2020/12/10 06:56:14;;;;;;;25.07;13.90;;;4.60;95.70;;;;;;5079478;28;20496;-69
2020/12/10 06:58:56;;;;;;;21.77;13.23;;;4.00;99.90;;;;;;5082036;28;20447;-68
2020/12/10 07:01:48;;;;;;;28.00;13.77;;;3.80;1.00;;;;;;5076407;28;20432;-68
2020/12/10 07:04:19;;;;;;;23.57;13.50;;;3.80;1.00;;;;;;5092602;28;20527;-68
2020/12/10 07:07:12;;;;;;;22.67;12.90;;;3.90;1.00;;;;;;5079380;28;20428;-68
2020/12/10 07:09:49;;;;;;;27.23;16.53;;;3.90;1.00;;;;;;5087317;28;20440;-69
2020/12/10 07:12:23;;;;;;;20.40;12.53;;;3.90;1.00;;;;;;5092229;28;20864;-69
2020/12/10 07:14:56;;;;;;;23.47;13.97;;;3.80;1.00;;;;;;5077981;28;20849;-69
2020/12/10 07:17:25;;;;;;;25.60;12.70;;;3.80;1.00;;;;;;5083981;28;21215;-69
2020/12/10 07:19:52;;;;;;;22.47;14.77;;;3.80;1.00;;;;;;5082247;28;20456;-69
2020/12/10 07:22:19;;;;;;;23.93;13.20;;;3.90;1.00;;;;;;5075942;28;20531;-69
2020/12/10 07:27:26;;;;;;;26.07;13.50;;;3.70;1.00;;;;;;5088950;28;20523;-68
2020/12/10 07:29:57;;;;;;;26.67;14.30;;;3.70;1.00;;;;;;5080393;28;21015;-69
2020/12/10 07:32:24;;;;;;;25.93;13.40;;;3.60;1.00;;;;;;5082335;28;20443;-68
2020/12/10 07:34:58;;;;;;;27.23;14.03;;;3.70;1.00;;;;;;5082724;28;20845;-68
2020/12/10 07:37:29;;;;;;;20.67;12.23;;;3.80;1.00;;;;;;5112192;27;20519;-68
2020/12/10 07:39:56;;;;;;;18.57;11.57;;;3.80;1.00;;;;;;5081738;28;20445;-68
2020/12/10 07:42:22;;;;;;;22.33;12.20;;;4.00;1.00;;;;;;5085221;28;20525;-69
2020/12/10 07:44:48;;;;;;;25.37;13.80;;;4.00;99.90;;;;;;5085601;28;20538;-69
2020/12/10 07:47:15;;;;;;;25.40;11.57;;;4.00;99.90;;;;;;5086566;28;20480;-69
2020/12/10 07:49:41;;;;;;;16.90;12.30;;;4.00;99.90;;;;;;5077680;28;20524;-69
2020/12/10 07:52:10;;;;;;;22.83;13.87;;;3.80;1.00;;;;;;5086735;28;21001;-69
2020/12/10 07:54:46;;;;;;;21.50;12.67;;;4.00;1.00;;;;;;5088340;28;20433;-68
2020/12/10 07:57:23;;;;;;;23.20;12.80;;;4.10;99.90;;;;;;5076066;28;20545;-69
2020/12/10 08:00:14;;;;;;;21.73;13.00;;;4.00;1.00;;;;;;5078120;28;20429;-69
2020/12/10 08:06:05;;;;;;;16.37;9.83;;;4.00;99.90;;;;;;5081634;28;20937;-69
2020/12/10 08:08:38;;;;;;;21.27;12.00;;;4.10;96.10;;;;;;5083977;28;20465;-68
2020/12/10 08:11:12;;;;;;;23.40;13.33;;;4.10;1.00;;;;;;5088407;28;20443;-69
2020/12/10 08:19:23;;;;;;;18.97;10.47;;;4.30;99.90;;;;;;5084911;28;20443;-69
2020/12/10 08:21:51;;;;;;;23.80;12.50;;;4.10;1.00;;;;;;5070420;28;20454;-69
2020/12/10 08:24:39;;;;;;;29.23;13.63;;;4.10;99.90;;;;;;5081870;28;20881;-69
2020/12/10 08:27:08;;;;;;;25.63;13.63;;;4.10;99.90;;;;;;5079604;28;20476;-69
2020/12/10 08:29:57;;;;;;;24.40;13.60;;;4.10;99.90;;;;;;5081844;28;20548;-69
2020/12/10 08:32:23;;;;;;;22.83;12.80;;;4.10;99.90;;;;;;5080880;28;20617;-69
2020/12/10 08:35:02;;;;;;;22.83;14.03;;;4.00;99.90;;;;;;5081275;28;20457;-68
2020/12/10 08:37:37;;;;;;;20.77;12.30;;;4.00;1.00;;;;;;5079556;28;20471;-68
2020/12/10 08:40:04;;;;;;;30.60;12.67;;;4.10;99.90;;;;;;5080281;28;20429;-68
2020/12/10 08:42:30;;;;;;;18.60;11.70;;;4.00;99.90;;;;;;5082640;28;20863;-68
2020/12/10 08:44:57;;;;;;;19.90;12.43;;;4.10;99.90;;;;;;5085122;28;20441;-68
2020/12/10 08:47:24;;;;;;;24.47;11.47;;;4.10;99.90;;;;;;5083655;28;20539;-68
2020/12/10 08:50:22;;;;;;;24.60;12.37;;;4.20;99.90;;;;;;5076565;28;20866;-67
2020/12/10 08:52:54;;;;;;;16.83;10.80;;;4.10;99.90;;;;;;5080804;28;20998;-68
2020/12/10 08:58:07;;;;;;;12.80;6.70;;;3.70;1.00;;;;;;5077697;28;20509;-69
2020/12/10 09:03:20;;;;;;;11.13;7.80;;;4.00;1.00;;;;;;5066035;28;20833;-68
2020/12/10 09:05:46;;;;;;;13.23;9.37;;;4.30;3.80;;;;;;5079545;28;20461;-70
2020/12/10 09:08:13;;;;;;;15.80;9.13;;;4.20;99.90;;;;;;5083957;28;20516;-68
2020/12/10 09:10:40;;;;;;;16.00;8.50;;;4.20;99.90;;;;;;5084669;28;20885;-69
2020/12/10 09:13:08;;;;;;;13.67;9.30;;;4.10;99.90;;;;;;5085065;28;20524;-68
2020/12/10 09:15:35;;;;;;;13.53;8.17;;;4.20;99.90;;;;;;5076890;28;20806;-68
2020/12/10 09:20:42;;;;;;;17.70;10.80;;;4.20;99.90;;;;;;5074053;28;20960;-68
2020/12/10 09:23:09;;;;;;;15.80;8.50;;;4.20;1.00;;;;;;5075270;28;20494;-68
2020/12/10 09:25:35;;;;;;;14.13;9.40;;;4.30;99.90;;;;;;5081768;28;20998;-70
2020/12/10 09:28:04;;;;;;;10.07;7.20;;;4.40;1.00;;;;;;5089341;28;20487;-69
2020/12/10 09:33:13;;;;;;;10.53;5.57;;;4.00;99.90;;;;;;5077523;28;20451;-68
2020/12/10 09:38:20;;;;;;;9.77;6.30;;;4.30;1.00;;;;;;5079887;28;20445;-68
2020/12/10 09:40:46;;;;;;;9.43;5.87;;;4.50;1.00;;;;;;5079338;28;20509;-68
2020/12/10 09:43:14;;;;;;;8.67;5.57;;;4.40;99.90;;;;;;5086139;28;20564;-68
2020/12/10 09:45:41;;;;;;;8.10;4.70;;;4.50;99.90;;;;;;5093806;28;20471;-68
2020/12/10 09:48:08;;;;;;;9.50;6.20;;;4.30;1.00;;;;;;5084245;28;20556;-68
2020/12/10 09:50:42;;;;;;;9.03;6.77;;;4.30;99.90;;;;;;5085081;28;20535;-67
2020/12/10 09:53:14;;;;;;;9.90;6.70;;;4.40;1.00;;;;;;5090754;28;20464;-68
2020/12/10 09:56:00;;;;;;;10.33;6.57;;;4.60;1.00;;;;;;5082472;28;20517;-68
2020/12/10 10:01:09;;;;;;;9.90;6.53;;;4.30;1.00;;;;;;5072779;28;20441;-68
2020/12/10 10:03:36;;;;;;;9.50;6.47;;;4.40;99.90;;;;;;5093301;28;20578;-68
2020/12/10 10:06:03;;;;;;;11.37;7.00;;;4.60;1.00;;;;;;5083857;28;20445;-68
2020/12/10 10:08:31;;;;;;;8.20;6.23;;;4.70;1.00;;;;;;5086024;28;20479;-67
2020/12/10 10:10:58;;;;;;;8.70;5.90;;;4.70;99.90;;;;;;5088183;28;20449;-68
2020/12/10 10:16:27;;;;;;;12.20;7.97;;;4.50;1.00;;;;;;5083921;28;20448;-68
2020/12/10 10:18:54;;;;;;;16.97;11.57;;;4.60;31.80;;;;;;5085613;28;21001;-68
2020/12/10 10:21:22;;;;;;;13.47;7.97;;;4.50;99.90;;;;;;5074241;28;21031;-70
2020/12/10 10:23:48;;;;;;;14.30;8.40;;;4.60;1.00;;;;;;5078700;28;20571;-68
2020/12/10 10:26:15;;;;;;;12.57;8.10;;;4.60;1.00;;;;;;5088341;28;20857;-68
2020/12/10 10:28:48;;;;;;;11.20;6.97;;;4.80;99.90;;;;;;5090405;28;20528;-68
2020/12/10 10:31:27;;;;;;;9.03;6.03;;;4.70;1.00;;;;;;5087440;28;20469;-70
2020/12/10 10:33:53;;;;;;;8.70;6.97;;;4.70;1.00;;;;;;5084999;28;20543;-70
2020/12/10 10:36:21;;;;;;;10.73;6.50;;;4.80;1.00;;;;;;5089686;28;20494;-69
2020/12/10 10:39:06;;;;;;;10.87;7.23;;;4.80;1.00;;;;;;5090070;28;20815;-70
2020/12/10 10:41:49;;;;;;;13.70;7.40;;;4.80;99.90;;;;;;5078679;28;20521;-69
2020/12/10 10:44:16;;;;;;;14.20;7.70;;;4.80;13.70;;;;;;5089030;28;20475;-70
2020/12/10 10:46:58;;;;;;;12.67;7.57;;;5.00;1.00;;;;;;5089912;28;20775;-69
2020/12/10 10:52:13;;;;;;;10.20;5.73;;;5.00;99.90;;;;;;5082723;28;20980;-70
2020/12/10 10:54:59;;;;;;;9.53;7.27;;;4.70;99.90;;;;;;5087777;28;20441;-69
2020/12/10 10:57:26;;;;;;;12.40;7.50;;;4.60;1.00;;;;;;5077225;28;20445;-70
2020/12/10 10:59:52;;;;;;;11.73;7.70;;;4.70;99.90;;;;;;5079093;28;20533;-69
2020/12/10 11:05:00;;;;;;;13.27;7.90;;;4.70;1.00;;;;;;5059759;28;20485;-69
2020/12/10 11:07:26;;;;;;;11.77;8.00;;;4.60;1.00;;;;;;5079484;28;20442;-70
2020/12/10 11:09:53;;;;;;;13.87;8.40;;;4.80;99.90;;;;;;5087510;28;20507;-69
2020/12/10 11:12:19;;;;;;;11.90;7.60;;;4.50;1.00;;;;;;5091636;28;20512;-69
2020/12/10 11:15:14;;;;;;;14.93;8.97;;;4.70;29.70;;;;;;5078385;28;20483;-69
2020/12/10 11:17:56;;;;;;;12.23;8.20;;;5.00;1.00;;;;;;5084954;28;20523;-69
2020/12/10 11:20:22;;;;;;;14.53;8.63;;;4.90;1.00;;;;;;5078382;28;20440;-70
2020/12/10 11:22:49;;;;;;;15.57;9.30;;;4.90;99.90;;;;;;5076302;28;20543;-70
2020/12/10 11:25:15;;;;;;;14.50;8.23;;;4.70;1.00;;;;;;5079903;28;20529;-69
2020/12/10 11:27:41;;;;;;;13.17;8.90;;;4.90;1.00;;;;;;5078592;28;20444;-70
2020/12/10 11:30:08;;;;;;;14.00;8.30;;;5.00;1.00;;;;;;5078714;28;21097;-70
2020/12/10 11:40:54;;;;;;;15.53;8.87;;;4.90;99.90;;;;;;5077721;28;20487;-69
2020/12/10 11:46:05;;;;;;;15.90;9.83;;;4.60;99.90;;;;;;5090240;28;20908;-69
2020/12/10 11:48:31;;;;;;;12.73;9.47;;;4.90;1.00;;;;;;5077941;28;20490;-69
2020/12/10 11:50:58;;;;;;;19.20;9.60;;;4.90;99.90;;;;;;5079332;28;20623;-69
2020/12/10 11:53:32;;;;;;;16.73;10.30;;;4.80;1.00;;;;;;5087835;28;20779;-69
2020/12/10 11:55:58;;;;;;;14.33;9.10;;;4.80;1.00;;;;;;5079696;28;20442;-70
2020/12/10 11:58:25;;;;;;;17.77;10.00;;;4.80;1.00;;;;;;5082065;28;20874;-69
2020/12/10 12:00:51;;;;;;;15.50;10.10;;;4.70;1.00;;;;;;5071591;28;20808;-69
2020/12/10 12:03:18;;;;;;;15.83;10.00;;;4.70;99.90;;;;;;5092263;28;20921;-69
2020/12/10 12:05:44;;;;;;;15.90;9.73;;;4.80;99.90;;;;;;5080615;28;20536;-69
2020/12/10 12:08:28;;;;;;;19.03;11.00;;;4.60;99.90;;;;;;5084456;28;21000;-69
2020/12/10 12:10:54;;;;;;;14.20;9.67;;;4.60;1.00;;;;;;5085681;28;20437;-69
2020/12/10 12:13:21;;;;;;;17.37;10.00;;;4.80;1.00;;;;;;5085134;28;20525;-70
2020/12/10 12:18:29;;;;;;;15.80;8.03;;;4.70;99.90;;;;;;5087348;28;20460;-69
2020/12/10 12:23:53;;;;;;;17.47;9.40;;;4.60;1.00;;;;;;5076042;28;20484;-69
2020/12/10 12:26:27;;;;;;;15.07;8.10;;;4.50;1.00;;;;;;5080297;28;20511;-69
2020/12/10 12:28:54;;;;;;;15.37;9.37;;;4.50;96.90;;;;;;5087610;28;20523;-69
2020/12/10 12:31:27;;;;;;;16.13;10.30;;;4.70;1.00;;;;;;5084201;28;20906;-70
2020/12/10 12:34:09;;;;;;;16.67;9.53;;;4.70;1.00;;;;;;5081266;28;20453;-70
2020/12/10 12:36:37;;;;;;;17.93;9.47;;;4.60;99.90;;;;;;5085898;28;20441;-69
2020/12/10 12:39:21;;;;;;;13.57;10.00;;;4.80;1.00;;;;;;5087278;28;20862;-70
2020/12/10 12:41:47;;;;;;;13.00;9.20;;;4.60;99.90;;;;;;5080247;28;20516;-69
2020/12/10 12:44:13;;;;;;;15.33;10.40;;;4.70;1.00;;;;;;5086973;28;21003;-70
2020/12/10 12:49:22;;;;;;;16.20;10.40;;;4.90;99.90;;;;;;5074235;28;20512;-70
2020/12/10 12:52:15;;;;;;;19.20;11.07;;;4.90;99.90;;;;;;5084200;28;20487;-70
2020/12/10 12:54:45;;;;;;;15.53;10.00;;;4.90;78.20;;;;;;5085905;28;20444;-70
2020/12/10 12:57:12;;;;;;;17.93;11.00;;;4.80;99.90;;;;;;5075218;28;20474;-70
2020/12/10 12:59:39;;;;;;;19.23;10.33;;;4.80;99.90;;;;;;5077409;28;20532;-70
2020/12/10 13:02:06;;;;;;;16.67;10.50;;;4.90;1.00;;;;;;5080650;28;20469;-70
2020/12/10 13:04:32;;;;;;;16.43;10.40;;;4.70;99.90;;;;;;5091255;28;21124;-69
2020/12/10 13:07:15;;;;;;;18.93;10.23;;;5.00;99.90;;;;;;5077382;28;20540;-71
2020/12/10 13:09:43;;;;;;;20.97;11.80;;;5.00;99.90;;;;;;5085646;28;20437;-71
2020/12/10 13:12:09;;;;;;;18.93;10.53;;;5.00;1.00;;;;;;5089947;28;20445;-70
2020/12/10 13:17:19;;;;;;;15.77;11.50;;;4.90;99.90;;;;;;5080899;28;20443;-70
2020/12/10 13:19:54;;;;;;;19.20;11.03;;;5.00;1.00;;;;;;5081580;28;20489;-70
2020/12/10 13:22:45;;;;;;;18.73;11.47;;;4.90;99.90;;;;;;5073801;28;20484;-69
2020/12/10 13:25:13;;;;;;;17.93;10.10;;;5.10;99.90;;;;;;5071583;28;20491;-69
2020/12/10 13:27:39;;;;;;;25.70;13.60;;;5.10;99.90;;;;;;5087766;28;20520;-69
2020/12/10 13:30:24;;;;;;;25.30;14.20;;;5.10;99.90;;;;;;5077532;28;20450;-70
2020/12/10 13:32:51;;;;;;;15.30;9.63;;;5.20;99.90;;;;;;5077353;28;20512;-70
2020/12/10 13:35:18;;;;;;;17.73;11.40;;;5.30;99.90;;;;;;5084367;28;20447;-70
2020/12/10 13:37:44;;;;;;;17.47;10.10;;;5.20;1.00;;;;;;5090398;28;20515;-70
2020/12/10 13:40:11;;;;;;;17.53;10.97;;;5.20;99.90;;;;;;5080084;28;20523;-70
2020/12/10 13:42:40;;;;;;;19.67;11.43;;;5.10;1.00;;;;;;5081970;28;20497;-69
2020/12/10 13:45:06;;;;;;;15.00;9.90;;;5.10;1.00;;;;;;5086789;28;20491;-69
2020/12/10 13:47:34;;;;;;;18.83;10.80;;;5.20;1.00;;;;;;5082317;28;20557;-70
2020/12/10 13:50:00;;;;;;;19.00;11.30;;;5.10;1.00;;;;;;5078972;28;20468;-70
2020/12/10 13:52:27;;;;;;;15.03;10.03;;;5.20;1.00;;;;;;5085454;28;20539;-69
2020/12/10 13:54:54;;;;;;;17.33;10.73;;;5.00;1.00;;;;;;5084149;28;20524;-69
2020/12/10 13:57:21;;;;;;;16.80;10.33;;;5.10;1.00;;;;;;5074177;28;20433;-70
2020/12/10 14:00:08;;;;;;;19.73;11.10;;;5.10;99.90;;;;;;5076173;28;20476;-69